sensor_id;sensor_type;location;lat;lon;timestamp;P1;durP1;ratioP1;P2;durP2;ratioP2
19727;SDS011;10015;52.530;13.390;2023-02-28T00:00:35;5.27;;;2.93;;
19727;SDS011;10015;52.530;13.390;2023-02-28T00:03:02;8.87;;;3.87;;
19727;SDS011;10015;52.530;13.390;2023-02-28T00:05:28;9.23;;;3.90;;
19727;SDS011;10015;52.530;13.390;2023-02-28T00:07:54;7.20;;;3.40;;
19727;SDS011;10015;52.530;13.390;2023-02-28T00:10:22;9.90;;;3.10;;
19727;SDS011;10015;52.530;13.390;2023-02-28T00:12:55;11.20;;;3.60;;
19727;SDS011;10015;52.530;13.390;2023-02-28T00:15:25;6.77;;;3.13;;
19727;SDS011;10015;52.530;13.390;2023-02-28T00:17:51;7.50;;;2.53;;
19727;SDS011;10015;52.530;13.390;2023-02-28T00:20:17;6.03;;;2.90;;
19727;SDS011;10015;52.530;13.390;2023-02-28T00:22:47;7.10;;;3.03;;
19727;SDS011;10015;52.530;13.390;2023-02-28T00:25:16;5.37;;;2.70;;
19727;SDS011;10015;52.530;13.390;2023-02-28T00:27:44;9.83;;;3.43;;
19727;SDS011;10015;52.530;13.390;2023-02-28T00:30:11;7.83;;;3.47;;
19727;SDS011;10015;52.530;13.390;2023-02-28T00:32:38;7.90;;;3.27;;
19727;SDS011;10015;52.530;13.390;2023-02-28T00:35:05;6.97;;;2.83;;
19727;SDS011;10015;52.530;13.390;2023-02-28T00:37:32;9.83;;;3.17;;
19727;SDS011;10015;52.530;13.390;2023-02-28T00:39:59;9.90;;;3.53;;
19727;SDS011;10015;52.530;13.390;2023-02-28T00:42:26;7.03;;;2.97;;
19727;SDS011;10015;52.530;13.390;2023-02-28T00:44:52;8.03;;;3.30;;
19727;SDS011;10015;52.530;13.390;2023-02-28T00:47:17;9.67;;;3.17;;
19727;SDS011;10015;52.530;13.390;2023-02-28T00:49:43;9.00;;;3.20;;
19727;SDS011;10015;52.530;13.390;2023-02-28T00:52:09;10.30;;;3.13;;
19727;SDS011;10015;52.530;13.390;2023-02-28T00:54:35;10.17;;;3.43;;
19727;SDS011;10015;52.530;13.390;2023-02-28T00:57:01;10.70;;;3.20;;
19727;SDS011;10015;52.530;13.390;2023-02-28T00:59:27;8.37;;;3.30;;
19727;SDS011;10015;52.530;13.390;2023-02-28T01:01:53;8.83;;;3.07;;
19727;SDS011;10015;52.530;13.390;2023-02-28T01:04:20;10.83;;;2.90;;
19727;SDS011;10015;52.530;13.390;2023-02-28T01:06:46;5.30;;;2.67;;
19727;SDS011;10015;52.530;13.390;2023-02-28T01:09:12;7.17;;;2.53;;
19727;SDS011;10015;52.530;13.390;2023-02-28T01:11:41;6.93;;;2.90;;
19727;SDS011;10015;52.530;13.390;2023-02-28T01:14:12;7.90;;;3.10;;
19727;SDS011;10015;52.530;13.390;2023-02-28T01:16:39;8.03;;;3.10;;
19727;SDS011;10015;52.530;13.390;2023-02-28T01:19:06;6.77;;;2.57;;
19727;SDS011;10015;52.530;13.390;2023-02-28T01:21:32;8.97;;;3.20;;
19727;SDS011;10015;52.530;13.390;2023-02-28T01:24:00;10.43;;;2.97;;
19727;SDS011;10015;52.530;13.390;2023-02-28T01:26:26;7.27;;;2.90;;
19727;SDS011;10015;52.530;13.390;2023-02-28T01:28:52;7.67;;;3.00;;
19727;SDS011;10015;52.530;13.390;2023-02-28T01:31:18;7.53;;;2.90;;
19727;SDS011;10015;52.530;13.390;2023-02-28T01:33:45;6.83;;;3.40;;
19727;SDS011;10015;52.530;13.390;2023-02-28T01:36:19;5.33;;;2.60;;
19727;SDS011;10015;52.530;13.390;2023-02-28T01:38:47;6.63;;;3.07;;
19727;SDS011;10015;52.530;13.390;2023-02-28T01:41:21;9.33;;;3.53;;
19727;SDS011;10015;52.530;13.390;2023-02-28T01:47:00;7.93;;;3.27;;
19727;SDS011;10015;52.530;13.390;2023-02-28T01:49:25;8.00;;;2.80;;
19727;SDS011;10015;52.530;13.390;2023-02-28T01:51:53;6.23;;;3.03;;
19727;SDS011;10015;52.530;13.390;2023-02-28T01:54:31;7.23;;;3.17;;
19727;SDS011;10015;52.530;13.390;2023-02-28T01:57:01;9.03;;;3.17;;
19727;SDS011;10015;52.530;13.390;2023-02-28T01:59:38;6.07;;;3.10;;
19727;SDS011;10015;52.530;13.390;2023-02-28T02:02:16;7.43;;;2.97;;
19727;SDS011;10015;52.530;13.390;2023-02-28T02:07:38;6.33;;;2.90;;
19727;SDS011;10015;52.530;13.390;2023-02-28T02:15:30;7.83;;;3.40;;
19727;SDS011;10015;52.530;13.390;2023-02-28T02:29:31;4.73;;;2.80;;
19727;SDS011;10015;52.530;13.390;2023-02-28T02:35:26;7.53;;;3.53;;
19727;SDS011;10015;52.530;13.390;2023-02-28T02:40:35;6.60;;;3.30;;
19727;SDS011;10015;52.530;13.390;2023-02-28T02:45:46;8.33;;;2.87;;
19727;SDS011;10015;52.530;13.390;2023-02-28T02:48:18;6.57;;;3.07;;
19727;SDS011;10015;52.530;13.390;2023-02-28T02:50:49;6.47;;;3.03;;
19727;SDS011;10015;52.530;13.390;2023-02-28T02:53:21;7.00;;;3.60;;
19727;SDS011;10015;52.530;13.390;2023-02-28T02:55:52;6.63;;;2.97;;
19727;SDS011;10015;52.530;13.390;2023-02-28T02:58:22;7.87;;;3.50;;
19727;SDS011;10015;52.530;13.390;2023-02-28T03:00:54;7.90;;;3.50;;
19727;SDS011;10015;52.530;13.390;2023-02-28T03:03:23;6.93;;;3.43;;
19727;SDS011;10015;52.530;13.390;2023-02-28T03:06:04;8.00;;;3.40;;
19727;SDS011;10015;52.530;13.390;2023-02-28T03:08:35;7.97;;;3.20;;
19727;SDS011;10015;52.530;13.390;2023-02-28T03:11:03;7.80;;;3.33;;
19727;SDS011;10015;52.530;13.390;2023-02-28T03:13:51;7.53;;;3.10;;
19727;SDS011;10015;52.530;13.390;2023-02-28T03:29:58;11.27;;;4.27;;
19727;SDS011;10015;52.530;13.390;2023-02-28T03:32:34;8.00;;;3.40;;
19727;SDS011;10015;52.530;13.390;2023-02-28T03:35:23;6.90;;;3.97;;
19727;SDS011;10015;52.530;13.390;2023-02-28T03:37:58;8.23;;;3.47;;
19727;SDS011;10015;52.530;13.390;2023-02-28T03:40:31;7.37;;;3.40;;
19727;SDS011;10015;52.530;13.390;2023-02-28T03:42:59;7.30;;;3.67;;
19727;SDS011;10015;52.530;13.390;2023-02-28T03:45:35;8.93;;;3.80;;
19727;SDS011;10015;52.530;13.390;2023-02-28T03:50:45;7.60;;;3.97;;
19727;SDS011;10015;52.530;13.390;2023-02-28T03:53:25;6.53;;;3.60;;
19727;SDS011;10015;52.530;13.390;2023-02-28T03:58:55;9.43;;;4.30;;
19727;SDS011;10015;52.530;13.390;2023-02-28T04:01:28;11.07;;;4.20;;
19727;SDS011;10015;52.530;13.390;2023-02-28T04:04:01;8.17;;;3.73;;
19727;SDS011;10015;52.530;13.390;2023-02-28T04:06:28;10.63;;;4.03;;
19727;SDS011;10015;52.530;13.390;2023-02-28T04:08:57;10.90;;;4.30;;
19727;SDS011;10015;52.530;13.390;2023-02-28T04:11:40;6.93;;;3.63;;
19727;SDS011;10015;52.530;13.390;2023-02-28T04:14:21;9.57;;;4.20;;
19727;SDS011;10015;52.530;13.390;2023-02-28T04:16:47;8.87;;;3.60;;
19727;SDS011;10015;52.530;13.390;2023-02-28T04:19:13;8.40;;;3.97;;
19727;SDS011;10015;52.530;13.390;2023-02-28T04:24:09;9.23;;;4.10;;
19727;SDS011;10015;52.530;13.390;2023-02-28T04:26:40;7.83;;;3.83;;
19727;SDS011;10015;52.530;13.390;2023-02-28T04:29:08;8.77;;;3.93;;
19727;SDS011;10015;52.530;13.390;2023-02-28T04:31:36;10.07;;;3.90;;
19727;SDS011;10015;52.530;13.390;2023-02-28T04:34:02;11.07;;;4.23;;
19727;SDS011;10015;52.530;13.390;2023-02-28T04:36:28;8.10;;;3.77;;
19727;SDS011;10015;52.530;13.390;2023-02-28T04:38:54;9.27;;;3.87;;
19727;SDS011;10015;52.530;13.390;2023-02-28T04:41:21;7.63;;;4.03;;
19727;SDS011;10015;52.530;13.390;2023-02-28T04:43:48;9.53;;;4.00;;
19727;SDS011;10015;52.530;13.390;2023-02-28T04:46:14;8.13;;;3.63;;
19727;SDS011;10015;52.530;13.390;2023-02-28T04:48:40;10.00;;;3.77;;
19727;SDS011;10015;52.530;13.390;2023-02-28T04:51:11;7.10;;;3.53;;
19727;SDS011;10015;52.530;13.390;2023-02-28T04:53:39;8.60;;;4.20;;
19727;SDS011;10015;52.530;13.390;2023-02-28T04:56:07;6.53;;;4.20;;
19727;SDS011;10015;52.530;13.390;2023-02-28T04:58:36;6.93;;;4.10;;
19727;SDS011;10015;52.530;13.390;2023-02-28T05:01:03;8.03;;;4.03;;
19727;SDS011;10015;52.530;13.390;2023-02-28T05:03:30;6.93;;;3.87;;
19727;SDS011;10015;52.530;13.390;2023-02-28T05:05:56;9.13;;;4.13;;
19727;SDS011;10015;52.530;13.390;2023-02-28T05:08:21;9.80;;;4.07;;
19727;SDS011;10015;52.530;13.390;2023-02-28T05:10:48;9.20;;;4.07;;
19727;SDS011;10015;52.530;13.390;2023-02-28T05:13:13;6.93;;;4.23;;
19727;SDS011;10015;52.530;13.390;2023-02-28T05:15:39;6.77;;;3.73;;
19727;SDS011;10015;52.530;13.390;2023-02-28T05:18:05;12.57;;;4.23;;
19727;SDS011;10015;52.530;13.390;2023-02-28T05:20:33;8.00;;;4.03;;
19727;SDS011;10015;52.530;13.390;2023-02-28T05:22:59;8.53;;;4.10;;
19727;SDS011;10015;52.530;13.390;2023-02-28T05:25:26;8.80;;;4.20;;
19727;SDS011;10015;52.530;13.390;2023-02-28T05:27:52;8.37;;;4.00;;
19727;SDS011;10015;52.530;13.390;2023-02-28T05:30:18;8.20;;;3.80;;
19727;SDS011;10015;52.530;13.390;2023-02-28T05:32:43;9.40;;;4.00;;
19727;SDS011;10015;52.530;13.390;2023-02-28T05:35:15;7.57;;;3.63;;
19727;SDS011;10015;52.530;13.390;2023-02-28T05:37:41;9.40;;;3.80;;
19727;SDS011;10015;52.530;13.390;2023-02-28T05:40:06;8.23;;;3.70;;
19727;SDS011;10015;52.530;13.390;2023-02-28T05:42:36;10.90;;;3.83;;
19727;SDS011;10015;52.530;13.390;2023-02-28T05:45:02;8.13;;;4.00;;
19727;SDS011;10015;52.530;13.390;2023-02-28T05:47:29;9.83;;;3.70;;
19727;SDS011;10015;52.530;13.390;2023-02-28T05:49:55;8.27;;;4.03;;
19727;SDS011;10015;52.530;13.390;2023-02-28T05:52:21;9.37;;;3.67;;
19727;SDS011;10015;52.530;13.390;2023-02-28T05:54:47;10.10;;;4.13;;
19727;SDS011;10015;52.530;13.390;2023-02-28T05:57:13;9.17;;;4.40;;
19727;SDS011;10015;52.530;13.390;2023-02-28T05:59:39;8.93;;;3.70;;
19727;SDS011;10015;52.530;13.390;2023-02-28T06:02:06;11.47;;;4.40;;
19727;SDS011;10015;52.530;13.390;2023-02-28T06:04:37;8.83;;;4.20;;
19727;SDS011;10015;52.530;13.390;2023-02-28T06:07:03;9.27;;;4.00;;
19727;SDS011;10015;52.530;13.390;2023-02-28T06:09:29;10.30;;;4.37;;
19727;SDS011;10015;52.530;13.390;2023-02-28T06:11:57;11.10;;;4.83;;
19727;SDS011;10015;52.530;13.390;2023-02-28T06:14:24;11.87;;;4.50;;
19727;SDS011;10015;52.530;13.390;2023-02-28T06:16:50;11.57;;;4.47;;
19727;SDS011;10015;52.530;13.390;2023-02-28T06:19:16;8.57;;;4.57;;
19727;SDS011;10015;52.530;13.390;2023-02-28T06:21:42;8.83;;;4.80;;
19727;SDS011;10015;52.530;13.390;2023-02-28T06:24:11;9.43;;;4.27;;
19727;SDS011;10015;52.530;13.390;2023-02-28T06:26:37;12.20;;;4.97;;
19727;SDS011;10015;52.530;13.390;2023-02-28T06:29:04;11.17;;;5.43;;
19727;SDS011;10015;52.530;13.390;2023-02-28T06:31:29;8.83;;;4.90;;
19727;SDS011;10015;52.530;13.390;2023-02-28T06:33:55;13.53;;;5.00;;
19727;SDS011;10015;52.530;13.390;2023-02-28T06:36:22;12.40;;;5.23;;
19727;SDS011;10015;52.530;13.390;2023-02-28T06:38:48;11.60;;;4.83;;
19727;SDS011;10015;52.530;13.390;2023-02-28T06:41:20;56.57;;;21.97;;
19727;SDS011;10015;52.530;13.390;2023-02-28T06:43:47;29.93;;;11.67;;
19727;SDS011;10015;52.530;13.390;2023-02-28T06:46:13;49.57;;;22.80;;
19727;SDS011;10015;52.530;13.390;2023-02-28T06:48:39;34.13;;;14.67;;
19727;SDS011;10015;52.530;13.390;2023-02-28T06:51:07;33.13;;;12.80;;
19727;SDS011;10015;52.530;13.390;2023-02-28T06:53:35;18.17;;;6.93;;
19727;SDS011;10015;52.530;13.390;2023-02-28T06:56:05;12.83;;;5.87;;
19727;SDS011;10015;52.530;13.390;2023-02-28T06:58:33;15.23;;;5.57;;
19727;SDS011;10015;52.530;13.390;2023-02-28T07:00:59;10.90;;;5.87;;
19727;SDS011;10015;52.530;13.390;2023-02-28T07:03:28;15.83;;;5.20;;
19727;SDS011;10015;52.530;13.390;2023-02-28T07:05:54;13.77;;;6.07;;
19727;SDS011;10015;52.530;13.390;2023-02-28T07:08:22;11.47;;;6.13;;
19727;SDS011;10015;52.530;13.390;2023-02-28T07:10:52;13.83;;;5.87;;
19727;SDS011;10015;52.530;13.390;2023-02-28T07:13:21;15.17;;;7.00;;
19727;SDS011;10015;52.530;13.390;2023-02-28T07:18:20;15.17;;;7.00;;
19727;SDS011;10015;52.530;13.390;2023-02-28T07:20:46;15.47;;;6.60;;
19727;SDS011;10015;52.530;13.390;2023-02-28T07:23:12;13.03;;;6.40;;
19727;SDS011;10015;52.530;13.390;2023-02-28T07:25:38;16.00;;;6.87;;
19727;SDS011;10015;52.530;13.390;2023-02-28T07:28:04;15.80;;;6.70;;
19727;SDS011;10015;52.530;13.390;2023-02-28T07:30:30;19.97;;;6.77;;
19727;SDS011;10015;52.530;13.390;2023-02-28T07:32:56;14.93;;;6.93;;
19727;SDS011;10015;52.530;13.390;2023-02-28T07:35:22;17.30;;;6.53;;
19727;SDS011;10015;52.530;13.390;2023-02-28T07:37:49;17.50;;;7.03;;
19727;SDS011;10015;52.530;13.390;2023-02-28T07:40:15;19.67;;;7.47;;
19727;SDS011;10015;52.530;13.390;2023-02-28T07:42:43;15.37;;;6.43;;
19727;SDS011;10015;52.530;13.390;2023-02-28T07:45:10;14.77;;;6.60;;
19727;SDS011;10015;52.530;13.390;2023-02-28T07:47:37;17.83;;;6.87;;
19727;SDS011;10015;52.530;13.390;2023-02-28T07:50:05;16.23;;;7.10;;
19727;SDS011;10015;52.530;13.390;2023-02-28T07:52:32;17.27;;;6.50;;
19727;SDS011;10015;52.530;13.390;2023-02-28T07:54:58;15.57;;;6.53;;
19727;SDS011;10015;52.530;13.390;2023-02-28T07:57:24;12.70;;;6.77;;
19727;SDS011;10015;52.530;13.390;2023-02-28T07:59:50;5.43;;;3.03;;
19727;SDS011;10015;52.530;13.390;2023-02-28T08:02:19;5.83;;;2.30;;
19727;SDS011;10015;52.530;13.390;2023-02-28T08:04:45;6.03;;;2.33;;
19727;SDS011;10015;52.530;13.390;2023-02-28T08:07:13;5.37;;;2.37;;
19727;SDS011;10015;52.530;13.390;2023-02-28T08:09:40;4.50;;;2.07;;
19727;SDS011;10015;52.530;13.390;2023-02-28T08:12:07;3.93;;;2.20;;
19727;SDS011;10015;52.530;13.390;2023-02-28T08:14:34;7.00;;;2.43;;
19727;SDS011;10015;52.530;13.390;2023-02-28T08:17:01;7.50;;;2.93;;
19727;SDS011;10015;52.530;13.390;2023-02-28T08:19:28;5.43;;;2.60;;
19727;SDS011;10015;52.530;13.390;2023-02-28T08:21:55;7.13;;;2.50;;
19727;SDS011;10015;52.530;13.390;2023-02-28T08:24:22;4.70;;;2.63;;
19727;SDS011;10015;52.530;13.390;2023-02-28T08:26:49;5.47;;;2.63;;
19727;SDS011;10015;52.530;13.390;2023-02-28T08:29:16;5.20;;;2.50;;
19727;SDS011;10015;52.530;13.390;2023-02-28T08:31:42;7.07;;;2.80;;
19727;SDS011;10015;52.530;13.390;2023-02-28T08:34:09;6.67;;;3.00;;
19727;SDS011;10015;52.530;13.390;2023-02-28T08:36:38;5.13;;;2.63;;
19727;SDS011;10015;52.530;13.390;2023-02-28T08:39:05;7.07;;;2.70;;
19727;SDS011;10015;52.530;13.390;2023-02-28T08:41:32;5.03;;;2.63;;
19727;SDS011;10015;52.530;13.390;2023-02-28T08:43:58;5.23;;;2.37;;
19727;SDS011;10015;52.530;13.390;2023-02-28T08:46:25;4.23;;;2.10;;
19727;SDS011;10015;52.530;13.390;2023-02-28T08:48:52;4.53;;;1.43;;
19727;SDS011;10015;52.530;13.390;2023-02-28T08:51:19;4.77;;;1.50;;
19727;SDS011;10015;52.530;13.390;2023-02-28T08:53:55;3.23;;;1.90;;
19727;SDS011;10015;52.530;13.390;2023-02-28T08:56:25;3.50;;;1.90;;
19727;SDS011;10015;52.530;13.390;2023-02-28T08:58:53;3.93;;;2.20;;
19727;SDS011;10015;52.530;13.390;2023-02-28T09:01:25;3.77;;;1.83;;
19727;SDS011;10015;52.530;13.390;2023-02-28T09:03:53;2.93;;;1.57;;
19727;SDS011;10015;52.530;13.390;2023-02-28T09:06:21;3.90;;;1.77;;
19727;SDS011;10015;52.530;13.390;2023-02-28T09:08:48;6.13;;;1.70;;
19727;SDS011;10015;52.530;13.390;2023-02-28T09:11:15;3.00;;;1.40;;
19727;SDS011;10015;52.530;13.390;2023-02-28T09:13:41;3.83;;;1.60;;
19727;SDS011;10015;52.530;13.390;2023-02-28T09:16:10;4.00;;;1.80;;
19727;SDS011;10015;52.530;13.390;2023-02-28T09:18:38;5.63;;;1.90;;
19727;SDS011;10015;52.530;13.390;2023-02-28T09:21:09;3.60;;;2.33;;
19727;SDS011;10015;52.530;13.390;2023-02-28T09:23:40;7.07;;;2.10;;
19727;SDS011;10015;52.530;13.390;2023-02-28T09:26:06;3.27;;;1.93;;
19727;SDS011;10015;52.530;13.390;2023-02-28T09:28:33;3.40;;;1.60;;
19727;SDS011;10015;52.530;13.390;2023-02-28T09:30:59;3.23;;;1.50;;
19727;SDS011;10015;52.530;13.390;2023-02-28T09:33:26;4.37;;;1.80;;
19727;SDS011;10015;52.530;13.390;2023-02-28T09:35:57;3.00;;;1.47;;
19727;SDS011;10015;52.530;13.390;2023-02-28T09:38:25;5.13;;;1.97;;
19727;SDS011;10015;52.530;13.390;2023-02-28T09:40:54;4.03;;;1.70;;
19727;SDS011;10015;52.530;13.390;2023-02-28T09:43:27;2.80;;;1.67;;
19727;SDS011;10015;52.530;13.390;2023-02-28T09:48:29;3.60;;;1.80;;
19727;SDS011;10015;52.530;13.390;2023-02-28T09:51:05;3.63;;;1.57;;
19727;SDS011;10015;52.530;13.390;2023-02-28T09:53:37;4.17;;;1.60;;
19727;SDS011;10015;52.530;13.390;2023-02-28T09:58:55;4.87;;;1.87;;
19727;SDS011;10015;52.530;13.390;2023-02-28T10:04:46;3.60;;;2.03;;
19727;SDS011;10015;52.530;13.390;2023-02-28T10:10:58;4.60;;;1.77;;
19727;SDS011;10015;52.530;13.390;2023-02-28T10:19:38;4.47;;;1.73;;
19727;SDS011;10015;52.530;13.390;2023-02-28T10:22:25;3.43;;;1.87;;
19727;SDS011;10015;52.530;13.390;2023-02-28T10:24:57;5.97;;;2.00;;
19727;SDS011;10015;52.530;13.390;2023-02-28T10:27:31;3.63;;;1.60;;
19727;SDS011;10015;52.530;13.390;2023-02-28T10:29:59;3.50;;;2.00;;
19727;SDS011;10015;52.530;13.390;2023-02-28T10:32:31;2.87;;;1.77;;
19727;SDS011;10015;52.530;13.390;2023-02-28T10:35:16;6.00;;;2.50;;
19727;SDS011;10015;52.530;13.390;2023-02-28T10:37:47;9.03;;;2.57;;
19727;SDS011;10015;52.530;13.390;2023-02-28T10:45:39;4.17;;;1.97;;
19727;SDS011;10015;52.530;13.390;2023-02-28T10:48:31;4.63;;;1.77;;
19727;SDS011;10015;52.530;13.390;2023-02-28T10:51:15;3.60;;;1.87;;
19727;SDS011;10015;52.530;13.390;2023-02-28T11:01:34;2.83;;;2.00;;
19727;SDS011;10015;52.530;13.390;2023-02-28T11:07:06;2.10;;;1.20;;
19727;SDS011;10015;52.530;13.390;2023-02-28T11:09:48;2.80;;;1.43;;
19727;SDS011;10015;52.530;13.390;2023-02-28T11:12:37;4.50;;;1.67;;
19727;SDS011;10015;52.530;13.390;2023-02-28T11:15:18;2.47;;;1.50;;
19727;SDS011;10015;52.530;13.390;2023-02-28T11:20:47;6.17;;;2.40;;
19727;SDS011;10015;52.530;13.390;2023-02-28T11:23:19;23.07;;;10.57;;
19727;SDS011;10015;52.530;13.390;2023-02-28T11:25:47;5.57;;;2.13;;
19727;SDS011;10015;52.530;13.390;2023-02-28T11:28:24;3.27;;;1.90;;
19727;SDS011;10015;52.530;13.390;2023-02-28T11:33:31;4.90;;;2.03;;
19727;SDS011;10015;52.530;13.390;2023-02-28T11:36:14;3.57;;;2.10;;
19727;SDS011;10015;52.530;13.390;2023-02-28T11:38:44;2.93;;;1.93;;
19727;SDS011;10015;52.530;13.390;2023-02-28T11:41:19;3.17;;;2.10;;
19727;SDS011;10015;52.530;13.390;2023-02-28T11:44:17;4.10;;;1.90;;
19727;SDS011;10015;52.530;13.390;2023-02-28T11:52:14;4.77;;;2.43;;
19727;SDS011;10015;52.530;13.390;2023-02-28T11:55:08;2.93;;;1.70;;
19727;SDS011;10015;52.530;13.390;2023-02-28T12:06:22;4.17;;;2.30;;
19727;SDS011;10015;52.530;13.390;2023-02-28T12:14:27;4.60;;;2.30;;
19727;SDS011;10015;52.530;13.390;2023-02-28T12:28:53;3.70;;;1.93;;
19727;SDS011;10015;52.530;13.390;2023-02-28T12:31:29;5.27;;;2.13;;
19727;SDS011;10015;52.530;13.390;2023-02-28T12:34:02;4.57;;;2.27;;
19727;SDS011;10015;52.530;13.390;2023-02-28T12:36:31;5.07;;;2.10;;
19727;SDS011;10015;52.530;13.390;2023-02-28T12:39:02;5.47;;;2.33;;
19727;SDS011;10015;52.530;13.390;2023-02-28T12:41:42;3.53;;;2.00;;
19727;SDS011;10015;52.530;13.390;2023-02-28T12:44:11;3.50;;;2.07;;
19727;SDS011;10015;52.530;13.390;2023-02-28T12:46:44;3.00;;;2.07;;
19727;SDS011;10015;52.530;13.390;2023-02-28T12:51:47;3.90;;;2.07;;
19727;SDS011;10015;52.530;13.390;2023-02-28T12:57:01;4.43;;;1.83;;
19727;SDS011;10015;52.530;13.390;2023-02-28T12:59:56;4.67;;;2.10;;
19727;SDS011;10015;52.530;13.390;2023-02-28T13:11:05;4.57;;;2.20;;
19727;SDS011;10015;52.530;13.390;2023-02-28T13:13:32;5.50;;;2.50;;
19727;SDS011;10015;52.530;13.390;2023-02-28T13:18:32;4.30;;;2.00;;
19727;SDS011;10015;52.530;13.390;2023-02-28T13:21:02;4.97;;;2.00;;
19727;SDS011;10015;52.530;13.390;2023-02-28T13:23:55;2.90;;;1.80;;
19727;SDS011;10015;52.530;13.390;2023-02-28T13:34:34;3.43;;;2.00;;
19727;SDS011;10015;52.530;13.390;2023-02-28T13:47:30;12.07;;;5.67;;
19727;SDS011;10015;52.530;13.390;2023-02-28T14:06:18;3.13;;;1.87;;
19727;SDS011;10015;52.530;13.390;2023-02-28T14:08:52;4.07;;;2.07;;
19727;SDS011;10015;52.530;13.390;2023-02-28T14:11:34;4.50;;;2.47;;
19727;SDS011;10015;52.530;13.390;2023-02-28T14:14:03;6.63;;;2.30;;
19727;SDS011;10015;52.530;13.390;2023-02-28T14:19:14;3.17;;;1.90;;
19727;SDS011;10015;52.530;13.390;2023-02-28T14:37:51;13.30;;;5.43;;
19727;SDS011;10015;52.530;13.390;2023-02-28T14:40:21;6.37;;;2.90;;
19727;SDS011;10015;52.530;13.390;2023-02-28T14:42:57;3.80;;;2.20;;
19727;SDS011;10015;52.530;13.390;2023-02-28T14:45:31;5.70;;;2.43;;
19727;SDS011;10015;52.530;13.390;2023-02-28T14:47:59;3.27;;;1.93;;
19727;SDS011;10015;52.530;13.390;2023-02-28T14:50:31;3.47;;;1.90;;
19727;SDS011;10015;52.530;13.390;2023-02-28T14:52:59;4.30;;;2.27;;
19727;SDS011;10015;52.530;13.390;2023-02-28T14:55:28;6.53;;;2.50;;
19727;SDS011;10015;52.530;13.390;2023-02-28T14:58:00;3.33;;;1.90;;
19727;SDS011;10015;52.530;13.390;2023-02-28T15:00:35;4.97;;;2.30;;
19727;SDS011;10015;52.530;13.390;2023-02-28T15:03:44;5.77;;;2.27;;
19727;SDS011;10015;52.530;13.390;2023-02-28T15:06:06;7.53;;;2.30;;
19727;SDS011;10015;52.530;13.390;2023-02-28T15:08:40;5.37;;;2.23;;
19727;SDS011;10015;52.530;13.390;2023-02-28T15:11:16;3.80;;;2.40;;
19727;SDS011;10015;52.530;13.390;2023-02-28T15:13:48;4.77;;;2.00;;
19727;SDS011;10015;52.530;13.390;2023-02-28T15:19:05;4.13;;;2.10;;
19727;SDS011;10015;52.530;13.390;2023-02-28T15:21:41;3.63;;;2.00;;
19727;SDS011;10015;52.530;13.390;2023-02-28T15:24:17;5.13;;;2.63;;
19727;SDS011;10015;52.530;13.390;2023-02-28T15:26:56;4.57;;;2.33;;
19727;SDS011;10015;52.530;13.390;2023-02-28T15:29:24;3.43;;;1.90;;
19727;SDS011;10015;52.530;13.390;2023-02-28T15:31:56;5.00;;;2.13;;
19727;SDS011;10015;52.530;13.390;2023-02-28T15:36:58;5.53;;;2.23;;
19727;SDS011;10015;52.530;13.390;2023-02-28T15:39:25;4.73;;;2.43;;
19727;SDS011;10015;52.530;13.390;2023-02-28T15:41:55;3.67;;;2.20;;
19727;SDS011;10015;52.530;13.390;2023-02-28T15:44:45;4.33;;;2.30;;
19727;SDS011;10015;52.530;13.390;2023-02-28T15:47:19;6.33;;;2.87;;
19727;SDS011;10015;52.530;13.390;2023-02-28T15:49:53;7.00;;;3.67;;
19727;SDS011;10015;52.530;13.390;2023-02-28T15:55:18;5.13;;;2.50;;
19727;SDS011;10015;52.530;13.390;2023-02-28T15:57:49;3.57;;;2.07;;
19727;SDS011;10015;52.530;13.390;2023-02-28T16:00:22;4.77;;;2.30;;
19727;SDS011;10015;52.530;13.390;2023-02-28T16:02:49;6.47;;;2.37;;
19727;SDS011;10015;52.530;13.390;2023-02-28T16:07:53;4.43;;;2.17;;
19727;SDS011;10015;52.530;13.390;2023-02-28T16:10:20;6.67;;;2.70;;
19727;SDS011;10015;52.530;13.390;2023-02-28T16:12:50;6.77;;;2.53;;
19727;SDS011;10015;52.530;13.390;2023-02-28T16:15:19;5.93;;;2.83;;
19727;SDS011;10015;52.530;13.390;2023-02-28T16:17:46;4.30;;;2.50;;
19727;SDS011;10015;52.530;13.390;2023-02-28T16:20:20;3.90;;;2.37;;
19727;SDS011;10015;52.530;13.390;2023-02-28T16:22:48;3.63;;;2.23;;
19727;SDS011;10015;52.530;13.390;2023-02-28T16:25:15;4.60;;;2.40;;
19727;SDS011;10015;52.530;13.390;2023-02-28T16:27:43;10.47;;;4.63;;
19727;SDS011;10015;52.530;13.390;2023-02-28T16:30:19;9.47;;;3.00;;
19727;SDS011;10015;52.530;13.390;2023-02-28T16:32:47;5.37;;;2.77;;
19727;SDS011;10015;52.530;13.390;2023-02-28T16:35:14;5.07;;;2.67;;
19727;SDS011;10015;52.530;13.390;2023-02-28T16:37:41;6.80;;;2.67;;
19727;SDS011;10015;52.530;13.390;2023-02-28T16:40:13;5.90;;;2.77;;
19727;SDS011;10015;52.530;13.390;2023-02-28T16:42:41;6.77;;;3.00;;
19727;SDS011;10015;52.530;13.390;2023-02-28T16:45:13;6.33;;;2.67;;
19727;SDS011;10015;52.530;13.390;2023-02-28T16:47:45;3.90;;;2.20;;
19727;SDS011;10015;52.530;13.390;2023-02-28T16:50:19;7.20;;;3.30;;
19727;SDS011;10015;52.530;13.390;2023-02-28T16:52:49;5.60;;;2.93;;
19727;SDS011;10015;52.530;13.390;2023-02-28T16:55:18;4.83;;;2.27;;
19727;SDS011;10015;52.530;13.390;2023-02-28T16:57:44;5.20;;;2.80;;
19727;SDS011;10015;52.530;13.390;2023-02-28T17:00:15;5.63;;;2.80;;
19727;SDS011;10015;52.530;13.390;2023-02-28T17:02:41;6.30;;;2.63;;
19727;SDS011;10015;52.530;13.390;2023-02-28T17:05:08;5.97;;;2.40;;
19727;SDS011;10015;52.530;13.390;2023-02-28T17:07:36;7.33;;;3.13;;
19727;SDS011;10015;52.530;13.390;2023-02-28T17:10:02;6.47;;;2.83;;
19727;SDS011;10015;52.530;13.390;2023-02-28T17:12:35;11.77;;;2.90;;
19727;SDS011;10015;52.530;13.390;2023-02-28T17:15:01;6.60;;;2.77;;
19727;SDS011;10015;52.530;13.390;2023-02-28T17:17:27;5.47;;;2.17;;
19727;SDS011;10015;52.530;13.390;2023-02-28T17:19:54;4.60;;;2.50;;
19727;SDS011;10015;52.530;13.390;2023-02-28T17:22:20;4.40;;;2.77;;
19727;SDS011;10015;52.530;13.390;2023-02-28T17:24:46;6.40;;;2.87;;
19727;SDS011;10015;52.530;13.390;2023-02-28T17:27:12;7.27;;;3.07;;
19727;SDS011;10015;52.530;13.390;2023-02-28T17:29:38;6.83;;;3.33;;
19727;SDS011;10015;52.530;13.390;2023-02-28T17:32:04;7.80;;;3.20;;
19727;SDS011;10015;52.530;13.390;2023-02-28T17:34:30;7.33;;;3.27;;
19727;SDS011;10015;52.530;13.390;2023-02-28T17:36:56;8.63;;;3.43;;
19727;SDS011;10015;52.530;13.390;2023-02-28T17:39:22;6.63;;;3.13;;
19727;SDS011;10015;52.530;13.390;2023-02-28T17:41:52;7.50;;;3.67;;
19727;SDS011;10015;52.530;13.390;2023-02-28T17:44:19;6.13;;;3.23;;
19727;SDS011;10015;52.530;13.390;2023-02-28T17:46:46;7.60;;;3.50;;
19727;SDS011;10015;52.530;13.390;2023-02-28T17:49:12;9.10;;;2.77;;
19727;SDS011;10015;52.530;13.390;2023-02-28T17:51:38;6.63;;;3.03;;
19727;SDS011;10015;52.530;13.390;2023-02-28T17:54:04;6.43;;;3.07;;
19727;SDS011;10015;52.530;13.390;2023-02-28T17:56:30;8.10;;;3.40;;
19727;SDS011;10015;52.530;13.390;2023-02-28T17:58:58;6.83;;;3.33;;
19727;SDS011;10015;52.530;13.390;2023-02-28T18:01:24;7.13;;;3.40;;
19727;SDS011;10015;52.530;13.390;2023-02-28T18:03:54;8.10;;;3.87;;
19727;SDS011;10015;52.530;13.390;2023-02-28T18:06:22;8.93;;;3.77;;
19727;SDS011;10015;52.530;13.390;2023-02-28T18:09:17;6.63;;;3.70;;
19727;SDS011;10015;52.530;13.390;2023-02-28T18:11:52;13.17;;;4.20;;
19727;SDS011;10015;52.530;13.390;2023-02-28T18:14:20;9.97;;;4.47;;